Terminal Aerodrome Forecast
Issued by NWS Corpus Christi, TX

Home | Current Version | Previous Version | Text Only | Print | Product List | Glossary On
Versions: 1 2 3 4 5 6 7 8 9 10 11 12 13 14 15 16 17 18 19 20
000
FTUS44 KCRP 010740 AAA
TAFCRP
TAF AMD
KCRP 010740Z 0108/0206 13008KT P6SM SCT025 OVC250
     FM011500 15011KT P6SM VCSH SCT025 BKN150
     FM011700 14015G20KT P6SM VCTS SCT035CB BKN150
      TEMPO 0118/0122 VRB20G35KT 2SM +TSRA BR OVC015CB
     FM012300 13013KT P6SM VCTS SCT040CB BKN120 PROB30 0123/0203
      VRB15G30KT 2SM +TSRA BR OVC015CB
     FM020400 15008KT P6SM SCT025 BKN250=

USA.gov is the U.S. government's official web portal to all federal, state and local government web resources and services.